createdAt,value
2019-01-08T00:01:39.018Z,16.73
2019-01-08T00:04:11.030Z,15.83
2019-01-08T00:06:43.021Z,16.20
2019-01-08T00:09:15.052Z,14.47
2019-01-08T00:11:47.021Z,15.17
2019-01-08T00:14:19.026Z,14.77
2019-01-08T00:16:50.979Z,15.37
2019-01-08T00:19:23.003Z,15.33
2019-01-08T00:21:55.037Z,15.10
2019-01-08T00:24:27.013Z,15.63
2019-01-08T00:26:59.074Z,16.00
2019-01-08T00:29:31.080Z,14.93
2019-01-08T00:32:03.089Z,14.93
2019-01-08T00:34:35.080Z,14.70
2019-01-08T00:37:07.084Z,14.87
2019-01-08T00:39:39.083Z,13.73
2019-01-08T00:42:11.055Z,14.37
2019-01-08T00:44:43.041Z,13.03
2019-01-08T00:47:15.283Z,13.63
2019-01-08T00:49:47.275Z,13.33
2019-01-08T00:52:19.249Z,13.13
2019-01-08T00:54:51.307Z,12.47
2019-01-08T00:57:23.255Z,12.43
2019-01-08T00:59:55.256Z,12.03
2019-01-08T01:02:27.238Z,11.10
2019-01-08T01:04:59.273Z,11.07
2019-01-08T01:07:31.228Z,12.03
2019-01-08T01:10:03.298Z,11.10
2019-01-08T01:12:35.361Z,11.23
2019-01-08T01:15:08.240Z,10.77
2019-01-08T01:17:40.243Z,10.40
2019-01-08T01:20:12.237Z,10.40
2019-01-08T01:22:44.182Z,10.40
2019-01-08T01:25:16.165Z,11.37
2019-01-08T01:27:48.160Z,10.13
2019-01-08T01:30:20.152Z,10.40
2019-01-08T01:32:52.134Z,9.87
2019-01-08T01:35:24.122Z,10.20
2019-01-08T01:37:56.103Z,11.10
2019-01-08T01:40:28.052Z,10.83
2019-01-08T01:43:00.041Z,10.93
2019-01-08T01:45:32.014Z,11.13
2019-01-08T01:48:04.002Z,11.10
2019-01-08T01:50:35.959Z,10.90
2019-01-08T01:53:07.960Z,10.10
2019-01-08T01:55:39.938Z,10.77
2019-01-08T01:58:11.939Z,10.83
2019-01-08T02:00:43.910Z,11.73
2019-01-08T02:03:15.925Z,9.43
2019-01-08T02:05:47.900Z,10.13
2019-01-08T02:08:19.903Z,10.33
2019-01-08T02:10:51.876Z,10.73
2019-01-08T02:13:23.890Z,10.83
2019-01-08T02:15:55.847Z,10.60
2019-01-08T02:18:27.822Z,9.93
2019-01-08T02:20:59.783Z,10.23
2019-01-08T02:23:31.801Z,10.13
2019-01-08T02:26:03.749Z,10.90
2019-01-08T02:28:35.777Z,9.90
2019-01-08T02:31:07.735Z,9.20
2019-01-08T02:33:39.711Z,10.67
2019-01-08T02:36:11.677Z,10.00
2019-01-08T02:38:43.676Z,9.77
2019-01-08T02:41:15.688Z,9.47
2019-01-08T02:43:47.620Z,9.90
2019-01-08T02:46:19.813Z,10.27
2019-01-08T02:48:51.860Z,9.53
2019-01-08T02:51:23.846Z,9.60
2019-01-08T02:53:55.801Z,10.30
2019-01-08T02:56:27.800Z,10.47
2019-01-08T02:58:59.765Z,9.73
2019-01-08T03:01:31.756Z,8.53
2019-01-08T03:04:03.708Z,8.97
2019-01-08T03:06:35.698Z,10.47
2019-01-08T03:09:07.656Z,9.17
2019-01-08T03:11:39.636Z,8.60
2019-01-08T03:14:11.593Z,9.67
2019-01-08T03:16:43.706Z,9.40
2019-01-08T03:19:15.656Z,9.37
2019-01-08T03:21:47.654Z,9.20
2019-01-08T03:24:19.706Z,8.67
2019-01-08T03:26:51.801Z,8.97
2019-01-08T03:29:23.789Z,9.10
2019-01-08T03:31:55.779Z,9.77
2019-01-08T03:34:27.734Z,8.97
2019-01-08T03:36:59.752Z,8.53
2019-01-08T03:39:31.704Z,9.67
2019-01-08T03:42:03.773Z,8.13
2019-01-08T03:44:35.751Z,8.63
2019-01-08T03:47:07.726Z,9.17
2019-01-08T03:49:39.704Z,8.17
2019-01-08T03:52:11.701Z,8.23
2019-01-08T03:54:43.657Z,8.63
2019-01-08T03:57:15.727Z,8.40
2019-01-08T03:59:47.688Z,8.73
2019-01-08T04:02:19.664Z,8.77
2019-01-08T04:04:51.660Z,7.30
2019-01-08T04:07:23.670Z,8.17
2019-01-08T04:09:55.627Z,7.30
2019-01-08T04:12:27.618Z,7.07
2019-01-08T04:14:59.594Z,7.00
2019-01-08T04:17:31.588Z,7.30
2019-01-08T04:20:03.613Z,6.57
2019-01-08T04:22:35.663Z,6.80
2019-01-08T04:25:07.625Z,6.83
2019-01-08T04:27:39.625Z,6.33
2019-01-08T04:30:11.641Z,5.97
2019-01-08T04:32:43.589Z,5.77
2019-01-08T04:35:15.558Z,5.60
2019-01-08T04:37:47.533Z,5.77
2019-01-08T04:40:19.569Z,4.87
2019-01-08T04:42:51.549Z,5.87
2019-01-08T04:45:23.560Z,6.50
2019-01-08T04:47:55.506Z,7.97
2019-01-08T04:50:27.517Z,6.33
2019-01-08T04:52:59.488Z,6.07
2019-01-08T04:55:31.476Z,5.23
2019-01-08T04:58:03.446Z,4.93
2019-01-08T05:00:35.432Z,4.80
2019-01-08T05:03:07.449Z,5.40
2019-01-08T05:05:39.428Z,4.47
2019-01-08T05:08:11.400Z,4.77
2019-01-08T05:10:43.400Z,4.53
2019-01-08T05:13:15.519Z,4.00
2019-01-08T05:15:47.534Z,3.83
2019-01-08T05:18:19.528Z,4.20
2019-01-08T05:20:51.530Z,4.30
2019-01-08T05:23:23.503Z,3.80
2019-01-08T05:25:55.529Z,3.83
2019-01-08T05:28:27.496Z,4.20
2019-01-08T05:30:59.479Z,3.97
2019-01-08T05:33:31.488Z,3.60
2019-01-08T05:36:03.476Z,4.03
2019-01-08T05:38:35.546Z,4.00
2019-01-08T05:41:07.543Z,3.70
2019-01-08T05:43:39.578Z,3.60
2019-01-08T05:46:11.522Z,3.83
2019-01-08T05:48:43.537Z,3.77
2019-01-08T05:51:15.502Z,4.60
2019-01-08T05:53:47.475Z,4.10
2019-01-08T05:56:19.465Z,4.57
2019-01-08T05:58:51.546Z,4.87
2019-01-08T06:01:23.513Z,4.77
2019-01-08T06:03:55.508Z,4.60
2019-01-08T06:06:27.475Z,4.00
2019-01-08T06:08:59.465Z,4.03
2019-01-08T06:11:31.429Z,4.50
2019-01-08T06:14:03.424Z,3.70
2019-01-08T06:16:35.403Z,5.40
2019-01-08T06:19:07.419Z,4.87
2019-01-08T06:21:39.430Z,3.80
2019-01-08T06:24:11.427Z,3.70
2019-01-08T06:26:43.452Z,4.47
2019-01-08T06:29:15.441Z,4.20
2019-01-08T06:31:47.400Z,3.60
2019-01-08T06:34:19.394Z,3.87
2019-01-08T06:36:51.364Z,4.20
2019-01-08T06:39:23.365Z,4.20
2019-01-08T06:41:55.340Z,3.90
2019-01-08T06:44:27.341Z,3.70
2019-01-08T06:46:59.339Z,4.37
2019-01-08T06:49:31.341Z,4.40
2019-01-08T06:52:03.291Z,3.60
2019-01-08T06:54:35.319Z,4.13
2019-01-08T06:57:07.299Z,3.93
2019-01-08T06:59:39.322Z,3.90
2019-01-08T07:02:11.318Z,4.07
2019-01-08T07:04:43.301Z,5.07
2019-01-08T07:07:15.289Z,4.90
2019-01-08T07:09:47.311Z,4.20
2019-01-08T07:12:19.349Z,4.47
2019-01-08T07:14:51.318Z,4.33
2019-01-08T07:17:23.321Z,4.27
2019-01-08T07:19:55.298Z,4.57
2019-01-08T07:22:27.323Z,4.50
2019-01-08T07:24:59.391Z,5.50
2019-01-08T07:27:31.444Z,4.30
2019-01-08T07:30:03.740Z,4.70
2019-01-08T07:32:35.742Z,5.27
2019-01-08T07:35:07.732Z,5.07
2019-01-08T07:37:39.727Z,5.53
2019-01-08T07:40:11.699Z,5.13
2019-01-08T07:42:43.703Z,5.40
2019-01-08T07:45:15.703Z,6.10
2019-01-08T07:47:47.691Z,4.90
2019-01-08T07:50:19.672Z,4.47
2019-01-08T07:52:51.672Z,5.67
2019-01-08T07:55:23.644Z,5.73
2019-01-08T07:57:55.654Z,7.77
2019-01-08T08:00:27.639Z,6.27
2019-01-08T08:02:59.644Z,4.90
2019-01-08T08:05:31.636Z,5.20
2019-01-08T08:08:03.626Z,5.13
2019-01-08T08:10:35.604Z,5.37
2019-01-08T08:13:07.597Z,5.93
2019-01-08T08:15:46.604Z,6.17
2019-01-08T08:18:18.690Z,6.37
2019-01-08T08:20:50.713Z,5.67
2019-01-08T08:23:22.762Z,5.57
2019-01-08T08:25:54.763Z,5.80
2019-01-08T08:28:26.796Z,6.27
2019-01-08T08:30:59.217Z,6.40
2019-01-08T08:33:31.285Z,5.80
2019-01-08T08:36:03.259Z,5.83
2019-01-08T08:38:36.639Z,5.77
2019-01-08T08:41:08.629Z,4.63
2019-01-08T08:43:40.643Z,5.17
2019-01-08T08:46:12.662Z,5.37
2019-01-08T08:48:44.678Z,4.80
2019-01-08T08:51:16.649Z,4.80
2019-01-08T08:53:52.573Z,5.53
2019-01-08T08:56:22.547Z,5.10
2019-01-08T08:58:54.561Z,4.60
2019-01-08T09:01:26.561Z,4.93
2019-01-08T09:03:58.579Z,5.03
2019-01-08T09:06:30.614Z,4.67
2019-01-08T09:09:02.762Z,4.70
2019-01-08T09:11:34.769Z,4.57
2019-01-08T09:14:06.728Z,4.50
2019-01-08T09:16:38.748Z,4.43
2019-01-08T09:19:10.736Z,4.77
2019-01-08T09:21:42.749Z,5.03
2019-01-08T09:24:14.724Z,4.90
2019-01-08T09:26:46.768Z,3.87
2019-01-08T09:29:18.722Z,4.00
2019-01-08T09:31:50.713Z,4.10
2019-01-08T09:34:22.681Z,4.03
2019-01-08T09:36:54.700Z,4.00
2019-01-08T09:39:26.681Z,4.37
2019-01-08T09:41:58.698Z,3.90
2019-01-08T09:44:30.696Z,4.00
2019-01-08T09:47:02.678Z,3.60
2019-01-08T09:49:34.638Z,4.07
2019-01-08T09:52:06.634Z,3.47
2019-01-08T09:54:38.619Z,3.00
2019-01-08T09:57:10.637Z,3.30
2019-01-08T09:59:42.615Z,3.50
2019-01-08T10:02:14.635Z,3.33
2019-01-08T10:04:46.585Z,3.20
2019-01-08T10:07:18.606Z,3.00
2019-01-08T10:09:50.587Z,3.50
2019-01-08T10:12:22.616Z,3.30
2019-01-08T10:14:54.598Z,3.10
2019-01-08T10:17:26.642Z,4.27
2019-01-08T10:19:58.740Z,4.10
2019-01-08T10:22:30.745Z,4.20
2019-01-08T10:25:02.846Z,4.37
2019-01-08T10:27:34.857Z,5.00
2019-01-08T10:30:08.377Z,4.83
2019-01-08T10:32:40.391Z,4.80
2019-01-08T10:35:12.383Z,4.80
2019-01-08T10:37:44.398Z,5.27
2019-01-08T10:40:16.392Z,4.50
2019-01-08T10:42:48.414Z,6.30
2019-01-08T10:45:20.377Z,4.80
2019-01-08T10:47:52.391Z,5.27
2019-01-08T10:50:24.408Z,4.50
2019-01-08T10:52:56.410Z,4.43
2019-01-08T10:55:28.413Z,4.90
2019-01-08T10:58:00.416Z,4.30
2019-01-08T11:00:32.522Z,4.60
2019-01-08T11:03:04.530Z,4.80
2019-01-08T11:05:36.538Z,4.37
2019-01-08T11:08:08.527Z,4.30
2019-01-08T11:10:40.638Z,4.60
2019-01-08T11:13:12.629Z,5.17
2019-01-08T11:15:44.671Z,5.00
2019-01-08T11:18:16.732Z,5.20
2019-01-08T11:20:48.737Z,4.10
2019-01-08T11:23:20.818Z,4.87
2019-01-08T11:25:52.810Z,4.67
2019-01-08T11:28:24.832Z,4.60
2019-01-08T11:30:56.858Z,4.80
2019-01-08T11:33:28.835Z,4.70
2019-01-08T11:36:00.841Z,4.77
2019-01-08T11:38:32.839Z,5.00
2019-01-08T11:41:04.859Z,4.97
2019-01-08T11:43:36.850Z,4.90
2019-01-08T11:46:08.851Z,5.10
2019-01-08T11:48:40.844Z,4.30
2019-01-08T11:51:12.877Z,4.73
2019-01-08T11:53:44.849Z,5.83
2019-01-08T11:56:16.900Z,5.23
2019-01-08T11:58:48.898Z,4.97
2019-01-08T12:01:20.900Z,4.97
2019-01-08T12:03:52.919Z,4.50
2019-01-08T12:06:24.946Z,4.87
2019-01-08T12:08:56.937Z,4.47
2019-01-08T12:11:30.453Z,4.93
2019-01-08T12:14:02.431Z,4.83
2019-01-08T12:16:34.460Z,5.00
2019-01-08T12:19:06.451Z,4.83
2019-01-08T12:21:38.438Z,4.83
2019-01-08T12:24:10.508Z,4.40
2019-01-08T12:26:42.475Z,3.73
2019-01-08T12:29:14.503Z,3.97
2019-01-08T12:31:46.498Z,3.93
2019-01-08T12:34:18.509Z,3.60
2019-01-08T12:36:50.495Z,3.67
2019-01-08T12:39:22.500Z,3.50
2019-01-08T12:41:54.524Z,3.43
2019-01-08T12:44:26.546Z,3.30
2019-01-08T12:46:58.509Z,3.87
2019-01-08T12:49:30.496Z,3.60
2019-01-08T12:52:02.469Z,3.77
2019-01-08T12:54:34.472Z,3.30
2019-01-08T12:57:06.466Z,3.47
2019-01-08T12:59:38.475Z,3.40
2019-01-08T13:02:14.872Z,3.53
2019-01-08T13:04:44.401Z,3.90
2019-01-08T13:07:16.386Z,3.90
2019-01-08T13:09:48.393Z,3.80
2019-01-08T13:12:20.402Z,3.47
2019-01-08T13:14:52.403Z,3.43
2019-01-08T13:17:24.423Z,3.90
2019-01-08T13:19:56.438Z,4.10
2019-01-08T13:22:28.422Z,3.67
2019-01-08T13:25:00.497Z,3.90
2019-01-08T13:27:32.491Z,3.53
2019-01-08T13:30:05.005Z,3.43
2019-01-08T13:32:36.988Z,3.50
2019-01-08T13:35:09.011Z,3.40
2019-01-08T13:37:40.986Z,3.90
2019-01-08T13:40:12.999Z,3.63
2019-01-08T13:42:44.973Z,3.90
2019-01-08T13:45:16.976Z,4.00
2019-01-08T13:47:48.957Z,3.63
2019-01-08T13:50:20.977Z,5.70
2019-01-08T13:52:52.973Z,5.07
2019-01-08T13:55:24.961Z,4.17
2019-01-08T13:57:56.997Z,4.00
2019-01-08T14:00:29.003Z,4.30
2019-01-08T14:03:01.027Z,4.77
2019-01-08T14:05:33.032Z,3.93
2019-01-08T14:08:05.049Z,3.90
2019-01-08T14:10:37.024Z,4.20
2019-01-08T14:13:09.036Z,4.23
2019-01-08T14:15:41.044Z,4.03
2019-01-08T14:18:13.070Z,3.90
2019-01-08T14:20:45.066Z,3.77
2019-01-08T14:23:17.093Z,3.57
2019-01-08T14:25:49.067Z,3.87
2019-01-08T14:28:33.388Z,4.13
2019-01-08T14:31:05.383Z,4.20
2019-01-08T14:33:37.389Z,3.93
2019-01-08T14:36:09.400Z,4.23
2019-01-08T14:38:41.453Z,4.20
2019-01-08T14:41:13.512Z,4.43
2019-01-08T14:43:45.549Z,4.30
2019-01-08T14:46:17.560Z,4.30
2019-01-08T14:48:49.605Z,4.70
2019-01-08T14:51:21.656Z,4.17
2019-01-08T14:53:53.663Z,4.67
2019-01-08T14:56:25.722Z,4.17
2019-01-08T14:58:57.766Z,4.03
2019-01-08T15:01:29.818Z,4.40
2019-01-08T15:04:01.955Z,3.80
2019-01-08T15:06:33.990Z,3.80
2019-01-08T15:09:06.866Z,3.67
2019-01-08T15:11:38.892Z,4.53
2019-01-08T15:14:10.930Z,4.00
2019-01-08T15:16:43.328Z,4.20
2019-01-08T15:19:15.356Z,4.40
2019-01-08T15:21:47.371Z,4.67
2019-01-08T15:24:19.462Z,4.37
2019-01-08T15:26:51.523Z,5.00
2019-01-08T15:29:23.584Z,4.50
2019-01-08T15:31:55.613Z,5.47
2019-01-08T15:34:27.793Z,5.60
2019-01-08T15:36:59.877Z,6.00
2019-01-08T15:39:31.882Z,7.70
2019-01-08T15:42:03.919Z,7.47
2019-01-08T15:44:35.905Z,5.50
2019-01-08T15:47:07.918Z,5.07
2019-01-08T15:49:39.934Z,5.67
2019-01-08T15:52:12.008Z,7.33
2019-01-08T15:54:44.053Z,7.97
2019-01-08T15:57:16.112Z,6.70
2019-01-08T15:59:48.135Z,7.10
2019-01-08T16:02:20.203Z,6.23
2019-01-08T16:04:52.246Z,6.13
2019-01-08T16:07:24.315Z,5.63
2019-01-08T16:09:56.339Z,5.23
2019-01-08T16:12:28.382Z,6.37
2019-01-08T16:15:00.515Z,6.87
2019-01-08T16:17:32.571Z,4.77
2019-01-08T16:20:04.679Z,4.70
2019-01-08T16:22:36.722Z,5.43
2019-01-08T16:25:08.780Z,5.20
2019-01-08T16:27:40.883Z,5.33
2019-01-08T16:30:12.886Z,7.00
2019-01-08T16:32:44.934Z,11.13
2019-01-08T16:35:17.011Z,28.30
2019-01-08T16:37:49.097Z,6.77
2019-01-08T16:40:21.089Z,6.10
2019-01-08T16:42:53.158Z,5.73
2019-01-08T16:45:25.154Z,5.90
2019-01-08T16:47:57.216Z,5.00
2019-01-08T16:50:29.255Z,6.13
2019-01-08T16:53:01.321Z,6.20
2019-01-08T16:55:33.355Z,12.93
2019-01-08T16:58:05.437Z,15.80
2019-01-08T17:00:37.439Z,9.73
2019-01-08T17:03:09.543Z,9.73
2019-01-08T17:05:41.560Z,9.13
2019-01-08T17:08:13.616Z,8.90
2019-01-08T17:10:45.702Z,6.10
2019-01-08T17:13:17.771Z,5.30
2019-01-08T17:15:49.766Z,5.03
2019-01-08T17:18:21.859Z,4.63
2019-01-08T17:20:53.894Z,4.40
2019-01-08T17:23:26.007Z,4.10
2019-01-08T17:25:58.091Z,4.27
2019-01-08T17:28:30.112Z,4.37
2019-01-08T17:31:02.187Z,4.80
2019-01-08T17:33:34.380Z,4.33
2019-01-08T17:36:06.557Z,4.80
2019-01-08T17:38:38.572Z,4.60
2019-01-08T17:41:10.609Z,4.57
2019-01-08T17:43:42.708Z,6.17
2019-01-08T17:46:14.793Z,5.93
2019-01-08T17:48:46.787Z,5.60
2019-01-08T17:51:18.896Z,6.07
2019-01-08T17:53:50.895Z,7.27
2019-01-08T17:56:23.069Z,6.70
2019-01-08T17:59:15.623Z,6.40
2019-01-08T18:02:31.041Z,5.90
2019-01-08T18:05:03.188Z,5.90
2019-01-08T18:07:35.258Z,7.33
2019-01-08T18:10:07.869Z,7.67
2019-01-08T18:12:40.161Z,10.73
2019-01-08T18:15:12.218Z,9.60
2019-01-08T18:17:44.262Z,10.53
2019-01-08T18:20:16.301Z,7.37
2019-01-08T18:22:48.381Z,7.27
2019-01-08T18:25:20.448Z,12.00
2019-01-08T18:28:12.027Z,11.33
2019-01-08T18:30:44.105Z,9.23
2019-01-08T18:33:16.199Z,6.43
2019-01-08T18:35:48.262Z,6.97
2019-01-08T18:38:20.343Z,6.90
2019-01-08T18:40:52.385Z,5.67
2019-01-08T18:43:24.535Z,6.40
2019-01-08T18:45:56.841Z,5.77
2019-01-08T18:49:09.735Z,5.13
2019-01-08T18:51:41.855Z,5.70
2019-01-08T18:54:16.159Z,5.90
2019-01-08T18:56:48.196Z,5.43
2019-01-08T18:59:20.307Z,5.40
2019-01-08T19:01:52.444Z,5.77
2019-01-08T19:04:24.668Z,5.93
2019-01-08T19:06:56.807Z,5.13
2019-01-08T19:09:49.708Z,5.43
2019-01-08T19:12:23.733Z,4.90
2019-01-08T19:14:55.844Z,5.93
2019-01-08T19:17:27.874Z,5.17
2019-01-08T19:20:00.185Z,6.37
2019-01-08T19:22:32.302Z,5.43
2019-01-08T19:25:04.597Z,5.80
2019-01-08T19:27:36.719Z,5.40
2019-01-08T19:30:09.466Z,5.83
2019-01-08T19:32:41.530Z,5.23
2019-01-08T19:35:13.664Z,4.77
2019-01-08T19:37:45.811Z,4.60
2019-01-08T19:40:17.912Z,5.23
2019-01-08T19:42:49.997Z,5.60
2019-01-08T19:45:22.138Z,6.20
2019-01-08T19:47:54.222Z,5.20
2019-01-08T19:50:26.368Z,5.10
2019-01-08T19:52:58.537Z,5.43
2019-01-08T19:55:30.685Z,5.23
2019-01-08T19:58:02.718Z,6.17
2019-01-08T20:00:34.858Z,6.43
2019-01-08T20:03:06.899Z,5.53
2019-01-08T20:05:39.048Z,6.43
2019-01-08T20:08:11.200Z,8.47
2019-01-08T20:10:43.363Z,6.13
2019-01-08T20:13:15.476Z,5.70
2019-01-08T20:15:47.688Z,6.40
2019-01-08T20:18:19.947Z,5.30
2019-01-08T20:20:52.262Z,7.27
2019-01-08T20:23:24.492Z,6.80
2019-01-08T20:25:56.577Z,6.30
2019-01-08T20:28:28.717Z,7.43
2019-01-08T20:31:00.755Z,24.47
2019-01-08T20:33:32.888Z,13.90
2019-01-08T20:36:04.968Z,4.97
2019-01-08T20:38:37.122Z,6.20
2019-01-08T20:41:09.194Z,5.67
2019-01-08T20:43:41.376Z,7.87
2019-01-08T20:46:13.418Z,31.13
2019-01-08T20:48:45.481Z,24.87
2019-01-08T20:51:17.528Z,30.67
2019-01-08T20:53:49.604Z,7.23
2019-01-08T20:56:21.635Z,6.00
2019-01-08T20:58:53.751Z,4.93
2019-01-08T21:01:25.748Z,6.33
2019-01-08T21:03:57.807Z,4.63
2019-01-08T21:06:29.882Z,4.80
2019-01-08T21:09:01.950Z,5.03
2019-01-08T21:11:33.989Z,4.93
2019-01-08T21:14:06.062Z,4.73
2019-01-08T21:16:38.152Z,4.27
2019-01-08T21:19:10.193Z,4.07
2019-01-08T21:21:42.232Z,3.90
2019-01-08T21:24:14.287Z,4.90
2019-01-08T21:26:46.313Z,4.67
2019-01-08T21:29:18.432Z,4.17
2019-01-08T21:31:50.425Z,3.70
2019-01-08T21:34:22.440Z,4.27
2019-01-08T21:36:54.447Z,3.63
2019-01-08T21:39:26.435Z,3.43
2019-01-08T21:41:58.413Z,4.13
2019-01-08T21:44:30.475Z,3.93
2019-01-08T21:47:43.297Z,4.00
2019-01-08T21:50:15.374Z,3.87
2019-01-08T21:52:47.344Z,3.20
2019-01-08T21:55:19.346Z,3.60
2019-01-08T21:57:51.355Z,3.60
2019-01-08T22:00:23.412Z,3.10
2019-01-08T22:02:55.380Z,3.07
2019-01-08T22:05:27.432Z,3.40
2019-01-08T22:08:00.715Z,3.37
2019-01-08T22:10:33.386Z,3.73
2019-01-08T22:13:05.412Z,3.60
2019-01-08T22:16:18.213Z,3.97
2019-01-08T22:18:50.304Z,3.67
2019-01-08T22:21:22.345Z,3.97
2019-01-08T22:23:54.311Z,3.83
2019-01-08T22:26:26.385Z,3.77
2019-01-08T22:29:39.208Z,4.10
2019-01-08T22:32:11.248Z,3.60
2019-01-08T22:34:43.234Z,3.60
2019-01-08T22:37:15.288Z,3.70
2019-01-08T22:39:47.293Z,3.93
2019-01-08T22:42:19.389Z,3.23
2019-01-08T22:44:51.415Z,3.63
2019-01-08T22:47:23.536Z,4.13
2019-01-08T22:49:55.578Z,3.33
2019-01-08T22:52:27.593Z,3.50
2019-01-08T22:54:59.617Z,3.57
2019-01-08T22:57:31.629Z,3.60
2019-01-08T23:00:46.030Z,3.40
2019-01-08T23:03:18.140Z,3.60
2019-01-08T23:05:51.587Z,3.37
2019-01-08T23:08:24.092Z,3.70
2019-01-08T23:10:56.053Z,3.43
2019-01-08T23:13:28.203Z,3.23
2019-01-08T23:16:00.199Z,3.53
2019-01-08T23:18:32.223Z,3.40
2019-01-08T23:21:04.207Z,2.77
2019-01-08T23:23:36.214Z,3.47
2019-01-08T23:26:08.281Z,3.20
2019-01-08T23:28:40.287Z,3.70
2019-01-08T23:31:12.224Z,3.30
2019-01-08T23:33:44.197Z,3.77
2019-01-08T23:36:16.159Z,4.40
2019-01-08T23:38:48.142Z,3.90
2019-01-08T23:41:20.111Z,3.83
2019-01-08T23:43:52.069Z,3.70
2019-01-08T23:46:24.064Z,3.43
2019-01-08T23:48:56.000Z,4.33
2019-01-08T23:51:27.998Z,3.43
2019-01-08T23:54:00.102Z,3.40
2019-01-08T23:56:33.574Z,3.90
2019-01-08T23:59:05.551Z,3.57
